Time;durP1;ratioP1;P1;durP2;ratioP2;P2;SDS_P1;SDS_P2;PMS_P1;PMS_P2;Temp;Humidity;BMP_temperature;BMP_pressure;BME280_temperature;BME280_humidity;BME280_pressure;Samples;Min_cycle;Max_cycle;Signal;HPM_P1;HPM_P2
2023/12/09 20:03:58;;;;;;;15.20;3.58;;;;;;;;;;7292267;19;20062;-81
2023/12/09 20:07:07;;;;;;;22.25;4.32;;;;;;;;;;7307108;19;20130;-79
2023/12/09 20:09:32;;;;;;;21.35;4.85;;;;;;;;;;7344833;19;20050;-76
2023/12/09 20:11:58;;;;;;;21.37;4.80;;;;;;;;;;7350450;19;20014;-78
2023/12/09 20:14:23;;;;;;;22.85;4.78;;;;;;;;;;7359487;19;20783;-80
2023/12/09 20:16:49;;;;;;;21.23;4.20;;;;;;;;;;7355161;19;20029;-78
2023/12/09 20:19:15;;;;;;;21.13;5.15;;;;;;;;;;7366091;19;20104;-76
2023/12/09 20:21:41;;;;;;;32.08;5.82;;;;;;;;;;7355607;19;20010;-78
2023/12/09 20:24:06;;;;;;;33.10;5.60;;;;;;;;;;7362058;19;20288;-77
2023/12/09 20:26:31;;;;;;;30.98;5.68;;;;;;;;;;7357660;19;20001;-76
2023/12/09 20:28:56;;;;;;;28.17;6.10;;;;;;;;;;7362250;19;20023;-76
2023/12/09 20:31:22;;;;;;;27.90;6.27;;;;;;;;;;7361047;19;20002;-76
2023/12/09 20:33:47;;;;;;;28.50;5.93;;;;;;;;;;7364974;19;20746;-79
2023/12/09 20:36:12;;;;;;;39.80;7.32;;;;;;;;;;7361216;19;20591;-77
2023/12/09 20:38:37;;;;;;;41.53;7.50;;;;;;;;;;7360064;19;20017;-76
2023/12/09 20:41:02;;;;;;;29.17;7.05;;;;;;;;;;7359195;19;20489;-75
2023/12/09 20:43:28;;;;;;;35.75;6.32;;;;;;;;;;7362742;19;20259;-78
2023/12/09 20:45:53;;;;;;;32.20;6.93;;;;;;;;;;7360283;19;20455;-80
2023/12/09 20:48:20;;;;;;;33.47;6.90;;;;;;;;;;7360739;19;20011;-80
2023/12/09 20:50:45;;;;;;;32.40;6.47;;;;;;;;;;7357567;19;20018;-79
2023/12/09 20:53:11;;;;;;;35.35;6.68;;;;;;;;;;7364481;19;20518;-77
2023/12/09 20:55:36;;;;;;;28.90;6.05;;;;;;;;;;7361767;19;20123;-77
2023/12/09 20:58:02;;;;;;;42.47;7.05;;;;;;;;;;7349919;19;20366;-76
2023/12/09 21:00:28;;;;;;;38.28;6.97;;;;;;;;;;7359897;19;20003;-79
2023/12/09 21:02:53;;;;;;;35.60;6.63;;;;;;;;;;7357281;19;19999;-78
2023/12/09 21:05:18;;;;;;;38.40;7.72;;;;;;;;;;7343193;19;20748;-78
2023/12/09 21:07:44;;;;;;;40.08;8.15;;;;;;;;;;7358063;19;20059;-76
2023/12/09 21:10:10;;;;;;;32.60;6.40;;;;;;;;;;7351718;19;20006;-79
2023/12/09 21:12:35;;;;;;;38.85;8.82;;;;;;;;;;7355494;19;20028;-76
2023/12/09 21:15:00;;;;;;;39.75;7.25;;;;;;;;;;7348718;19;19998;-78
2023/12/09 21:17:26;;;;;;;42.47;8.35;;;;;;;;;;7351217;19;20426;-76
2023/12/09 21:19:52;;;;;;;36.65;7.13;;;;;;;;;;7351040;19;20424;-76
2023/12/09 21:22:17;;;;;;;32.97;7.13;;;;;;;;;;7347235;19;20046;-75
2023/12/09 21:24:42;;;;;;;41.00;7.53;;;;;;;;;;7351159;19;20440;-78
2023/12/09 21:27:07;;;;;;;42.25;7.68;;;;;;;;;;7346011;19;20258;-76
2023/12/09 21:29:33;;;;;;;46.97;7.77;;;;;;;;;;7348911;19;20022;-79
2023/12/09 21:31:58;;;;;;;43.00;7.85;;;;;;;;;;7342773;19;21119;-81
2023/12/09 21:34:23;;;;;;;39.67;7.38;;;;;;;;;;7350613;19;20021;-78
2023/12/09 21:36:48;;;;;;;47.20;8.57;;;;;;;;;;7340613;19;20558;-79
2023/12/09 21:39:14;;;;;;;44.30;7.63;;;;;;;;;;7357203;19;20346;-77
2023/12/09 21:41:39;;;;;;;54.55;8.80;;;;;;;;;;7359170;19;20426;-76
2023/12/09 21:44:04;;;;;;;49.78;9.82;;;;;;;;;;7357396;19;20012;-76
2023/12/09 21:46:29;;;;;;;45.60;8.17;;;;;;;;;;7362989;19;19998;-76
2023/12/09 21:48:55;;;;;;;52.17;8.52;;;;;;;;;;7354674;19;20247;-77
2023/12/09 21:51:20;;;;;;;45.95;8.77;;;;;;;;;;7358627;19;20036;-76
2023/12/09 21:53:45;;;;;;;45.13;8.07;;;;;;;;;;7358967;19;20006;-78
2023/12/09 21:56:24;;;;;;;41.47;7.63;;;;;;;;;;7353875;19;19999;-76
2023/12/09 21:58:50;;;;;;;43.92;8.77;;;;;;;;;;7361640;19;20319;-76
2023/12/09 22:01:15;;;;;;;43.92;8.95;;;;;;;;;;7350469;19;20304;-76
2023/12/09 22:03:40;;;;;;;48.10;8.32;;;;;;;;;;7357191;19;20435;-78
2023/12/09 22:06:06;;;;;;;41.17;8.23;;;;;;;;;;7356772;19;20030;-76
2023/12/09 22:08:31;;;;;;;46.25;9.05;;;;;;;;;;7354930;19;20013;-75
2023/12/09 22:10:56;;;;;;;50.70;9.63;;;;;;;;;;7348140;19;20007;-76
2023/12/09 22:13:21;;;;;;;46.33;7.63;;;;;;;;;;7358439;19;20115;-78
2023/12/09 22:15:47;;;;;;;43.13;8.23;;;;;;;;;;7356095;19;20239;-77
2023/12/09 22:18:12;;;;;;;48.50;8.65;;;;;;;;;;7351029;19;21233;-76
2023/12/09 22:20:37;;;;;;;50.80;9.65;;;;;;;;;;7350560;19;20002;-76
2023/12/09 22:23:02;;;;;;;50.60;9.23;;;;;;;;;;7349615;19;20010;-77
2023/12/09 22:25:27;;;;;;;50.65;8.70;;;;;;;;;;7355091;19;20841;-76
2023/12/09 22:27:53;;;;;;;43.58;8.80;;;;;;;;;;7359133;19;20710;-76
2023/12/09 22:30:18;;;;;;;45.63;8.80;;;;;;;;;;7360559;19;20020;-78
2023/12/09 22:32:43;;;;;;;46.85;8.30;;;;;;;;;;7364093;19;20011;-76
2023/12/09 22:35:09;;;;;;;46.20;9.80;;;;;;;;;;7363211;19;20359;-78
2023/12/09 22:37:34;;;;;;;61.78;10.93;;;;;;;;;;7363902;19;20235;-77
2023/12/09 22:39:59;;;;;;;62.20;11.35;;;;;;;;;;7354226;19;20294;-76
2023/12/09 22:42:24;;;;;;;51.85;9.77;;;;;;;;;;7359548;19;20010;-77
2023/12/09 22:44:49;;;;;;;63.20;11.20;;;;;;;;;;7358431;19;20536;-76
2023/12/09 22:47:15;;;;;;;51.05;9.65;;;;;;;;;;7357781;19;20585;-77
2023/12/09 22:49:40;;;;;;;58.20;9.80;;;;;;;;;;7357725;19;20033;-76
2023/12/09 22:52:05;;;;;;;57.70;11.47;;;;;;;;;;7357002;19;20002;-76
2023/12/09 22:54:30;;;;;;;52.10;10.80;;;;;;;;;;7360713;19;20791;-77
2023/12/09 22:56:56;;;;;;;65.20;11.43;;;;;;;;;;7356070;19;20563;-79
2023/12/09 22:59:21;;;;;;;59.63;10.27;;;;;;;;;;7364070;19;20006;-77
2023/12/09 23:01:46;;;;;;;59.75;10.90;;;;;;;;;;7313570;19;20028;-77
2023/12/09 23:04:11;;;;;;;57.45;10.95;;;;;;;;;;7332281;19;20039;-76
2023/12/09 23:06:37;;;;;;;52.03;9.63;;;;;;;;;;7361788;19;20321;-77
2023/12/09 23:09:04;;;;;;;47.42;11.05;;;;;;;;;;7363634;19;20387;-76
2023/12/09 23:11:29;;;;;;;52.10;10.35;;;;;;;;;;7359620;19;20009;-77
2023/12/09 23:13:54;;;;;;;60.42;10.82;;;;;;;;;;7352226;19;20003;-78
2023/12/09 23:16:20;;;;;;;54.03;11.43;;;;;;;;;;7353315;19;20002;-76
2023/12/09 23:18:45;;;;;;;52.58;10.57;;;;;;;;;;7359035;19;20110;-78
2023/12/09 23:21:10;;;;;;;61.10;11.27;;;;;;;;;;7356546;19;20053;-76
2023/12/09 23:23:35;;;;;;;46.53;9.15;;;;;;;;;;7364369;19;20477;-77
2023/12/09 23:26:01;;;;;;;54.55;9.38;;;;;;;;;;7360664;19;20088;-77
2023/12/09 23:28:26;;;;;;;56.40;9.68;;;;;;;;;;7365607;19;20014;-75
2023/12/09 23:30:54;;;;;;;56.40;9.23;;;;;;;;;;7360767;19;20032;-78
2023/12/09 23:33:19;;;;;;;44.53;8.15;;;;;;;;;;7361976;19;20116;-77
2023/12/09 23:35:45;;;;;;;56.15;10.82;;;;;;;;;;7362341;19;20090;-77
2023/12/09 23:38:12;;;;;;;55.25;11.13;;;;;;;;;;7354105;19;20033;-77
2023/12/09 23:40:37;;;;;;;58.78;9.40;;;;;;;;;;7358300;19;20374;-78
2023/12/09 23:43:03;;;;;;;61.20;11.00;;;;;;;;;;7351823;19;20003;-78
2023/12/09 23:45:29;;;;;;;59.90;11.32;;;;;;;;;;7358391;19;20254;-77
2023/12/09 23:47:54;;;;;;;51.20;10.10;;;;;;;;;;7359172;19;20346;-76
2023/12/09 23:50:19;;;;;;;44.38;10.10;;;;;;;;;;7352288;19;20528;-78
2023/12/09 23:52:44;;;;;;;67.20;10.25;;;;;;;;;;7354261;19;19994;-77
2023/12/09 23:55:09;;;;;;;53.13;9.67;;;;;;;;;;7359895;19;20262;-77
2023/12/09 23:57:34;;;;;;;50.50;10.73;;;;;;;;;;7357406;19;20236;-77
